Aérodrome :
LOGIN :

S'inscrire | Disclaimer

   EN    FR    IT 

 










Légende :    VFR   VFR Marginal   IFR   IFR Intensif   IFR Très Intensif
Visi : 
Plafond : 
>= 8 km
>= 3000ft
5 à 8 km
1000 à 3000 ft
1500m à 5 km
500 à 1000 ft
800 à 1500m
200 à 500 ft
< 800m
< 200 ft
Symboles :   Orages  Brouillard  Fortes neiges  Fortes précipitations  Vent > 20 kt
SIGMETs :   Divers  Orages  Givrage  Turbulence  Onde Orograph.  Cendres Volcan.






- Altitude de l'aérodrome : 309 ft
- Code IATA : FNI


LFTW - Nîmes Garons

DERNIER METAR :
  • 270430Z AUTO 33010KT CAVOK 08/01 Q1025 NOSIG

METARs EXPIRÉS :
  • 270400Z AUTO 34012KT CAVOK 08/02 Q1025 NOSIG
  • 270330Z AUTO 35010KT 310V020 CAVOK 09/02 Q1026 NOSIG
  • 270300Z AUTO 34014KT CAVOK 09/03 Q1026 NOSIG
  • 270230Z AUTO 35008KT 320V020 CAVOK 09/04 Q1026 NOSIG
  • 270200Z AUTO 36009KT CAVOK 10/05 Q1026
  • 270130Z AUTO 35009KT CAVOK 09/06 Q1027

TAF TAF LFTW
Valide du 27 à 03h jusqu'au 28 à 03h UTC


270200Z 2703/2803 36013KT CAVOK
TEMPO 2710/2715 01018G32KT
TEMPO 2716/2724 SHRA SCT040TCU



MET'MAP, la Météo Aéronautique d'un coup d'oeil ! - Copyright ORBIFLY Décembre 2007 - Disclaimer

ORBIFLY MET'MAP TEAM :

Programmation & Développement : Alexandra Zaïnal
Sur une idée originale de : Baudouin d'Aumeries
Assistance à la programmation : Marc-Olivier Méhu
Soutien technique & logistique : Manuel Goepfert

Contact : metmap@orbifly.com




SOURCES & CREDITS :

   NOAA